Time,TemperatureF,DewpointF,PressureIn,WindDirection,WindDirectionDegrees,WindSpeedMPH,WindSpeedGustMPH,Humidity,HourlyPrecipIn,Conditions,Clouds,dailyrainin,SoftwareType,DateUTC
2013-07-18 00:00:00,61.0,38.0,-100.00,ESE,103,1.0,2.0,43,-99.99,,,-99.99,,2013-07-18 07:00:00,
2013-07-18 00:01:00,62.0,38.0,-100.00,ENE,78,2.0,2.0,41,-99.99,,,-99.99,,2013-07-18 07:01:00,
2013-07-18 00:22:00,60.0,36.0,-100.00,SE,132,3.0,4.0,41,-99.99,,,-99.99,,2013-07-18 07:22:00,
2013-07-18 00:32:00,61.0,38.0,-100.00,ESE,103,1.0,2.0,43,-99.99,,,-99.99,,2013-07-18 07:32:00,
2013-07-18 00:42:00,61.0,38.0,-100.00,ESE,103,1.0,2.0,43,-99.99,,,-99.99,,2013-07-18 07:42:00,
2013-07-18 00:52:00,61.0,38.0,-100.00,ESE,103,1.0,2.0,43,-99.99,,,-99.99,,2013-07-18 07:52:00,
2013-07-18 05:32:00,52.0,33.0,-100.00,ESE,121,2.0,3.0,48,-99.99,,,-99.99,,2013-07-18 12:32:00,
2013-07-18 07:52:00,58.0,31.0,-100.00,West,278,0.0,1.0,36,-99.99,,,-99.99,,2013-07-18 14:52:00,
2013-07-18 08:01:00,59.0,31.0,-100.00,NW,319,1.0,2.0,35,-99.99,,,-99.99,,2013-07-18 15:01:00,
2013-07-18 08:11:00,61.0,30.0,-100.00,NNW,329,1.0,3.0,31,-99.99,,,-99.99,,2013-07-18 15:11:00,
2013-07-18 08:32:00,65.0,30.0,-100.00,ESE,110,1.0,3.0,27,-99.99,,,-99.99,,2013-07-18 15:32:00,
2013-07-18 08:53:00,70.0,32.0,-100.00,NW,321,1.0,2.0,24,-99.99,,,-99.99,,2013-07-18 15:53:00,
2013-07-18 09:11:00,74.0,34.0,-100.00,West,278,1.0,2.0,23,-99.99,,,-99.99,,2013-07-18 16:11:00,
2013-07-18 09:32:00,79.0,34.0,-100.00,West,275,3.0,4.0,20,-99.99,,,-99.99,,2013-07-18 16:32:00,
2013-07-18 09:42:00,80.0,33.0,-100.00,West,274,4.0,7.0,18,-99.99,,,-99.99,,2013-07-18 16:42:00,
2013-07-18 09:52:00,80.0,33.0,-100.00,West,274,4.0,7.0,18,-99.99,,,-99.99,,2013-07-18 16:52:00,
2013-07-18 10:11:00,83.0,29.0,-100.00,West,265,6.0,10.0,14,-99.99,,,-99.99,,2013-07-18 17:11:00,
2013-07-18 10:33:00,84.0,28.0,-100.00,West,264,7.0,11.0,13,-99.99,,,-99.99,,2013-07-18 17:33:00,
2013-07-18 10:43:00,85.0,27.0,-100.00,West,265,6.0,11.0,12,-99.99,,,-99.99,,2013-07-18 17:43:00,
2013-07-18 10:52:00,85.0,27.0,-100.00,West,265,6.0,11.0,12,-99.99,,,-99.99,,2013-07-18 17:52:00,
2013-07-18 11:01:00,86.0,25.0,-100.00,WSW,255,7.0,12.0,11,-99.99,,,-99.99,,2013-07-18 18:01:00,
2013-07-18 11:22:00,86.0,23.0,-100.00,WSW,254,9.0,14.0,10,-99.99,,,-99.99,,2013-07-18 18:22:00,
2013-07-18 11:43:00,88.0,25.0,-100.00,WSW,257,10.0,16.0,10,-99.99,,,-99.99,,2013-07-18 18:43:00,
2013-07-18 11:52:00,88.0,25.0,-100.00,WSW,257,10.0,16.0,10,-99.99,,,-99.99,,2013-07-18 18:52:00,
2013-07-18 12:11:00,89.0,23.0,-100.00,WSW,254,10.0,17.0,9,-99.99,,,-99.99,,2013-07-18 19:11:00,
2013-07-18 12:22:00,89.0,23.0,-100.00,WSW,255,11.0,18.0,9,-99.99,,,-99.99,,2013-07-18 19:22:00,
2013-07-18 16:32:00,91.0,37.0,-100.00,West,262,9.0,17.0,15,-99.99,,,-99.99,,2013-07-18 23:32:00,
2013-07-18 17:01:00,90.0,38.0,-100.00,West,268,9.0,16.0,16,-99.99,,,-99.99,,2013-07-19 00:01:00,
2013-07-18 17:22:00,89.0,40.0,-100.00,West,262,10.0,16.0,18,-99.99,,,-99.99,,2013-07-19 00:22:00,
2013-07-18 17:32:00,88.0,41.0,-100.00,West,262,11.0,18.0,19,-99.99,,,-99.99,,2013-07-19 00:32:00,
2013-07-18 17:42:00,88.0,44.0,-100.00,West,268,10.0,16.0,22,-99.99,,,-99.99,,2013-07-19 00:42:00,
2013-07-18 17:52:00,88.0,44.0,-100.00,West,268,10.0,16.0,22,-99.99,,,-99.99,,2013-07-19 00:52:00,
2013-07-18 18:01:00,87.0,45.0,-100.00,West,269,10.0,16.0,23,-99.99,,,-99.99,,2013-07-19 01:01:00,
2013-07-18 18:11:00,87.0,46.0,-100.00,West,263,9.0,16.0,24,-99.99,,,-99.99,,2013-07-19 01:11:00,
2013-07-18 18:32:00,85.0,45.0,-100.00,West,266,8.0,14.0,25,-99.99,,,-99.99,,2013-07-19 01:32:00,
2013-07-18 18:42:00,84.0,43.0,-100.00,West,263,7.0,11.0,24,-99.99,,,-99.99,,2013-07-19 01:42:00,
2013-07-18 18:52:00,84.0,43.0,-100.00,West,263,7.0,11.0,24,-99.99,,,-99.99,,2013-07-19 01:52:00,
2013-07-18 19:01:00,83.0,44.0,-100.00,WSW,248,6.0,11.0,25,-99.99,,,-99.99,,2013-07-19 02:01:00,
2013-07-18 19:11:00,83.0,44.0,-100.00,WSW,248,6.0,11.0,25,-99.99,,,-99.99,,2013-07-19 02:11:00,
2013-07-18 19:32:00,81.0,43.0,-100.00,WSW,258,7.0,10.0,26,-99.99,,,-99.99,,2013-07-19 02:32:00,
2013-07-18 19:42:00,80.0,43.0,-100.00,West,264,5.0,10.0,27,-99.99,,,-99.99,,2013-07-19 02:42:00,
2013-07-18 19:52:00,80.0,43.0,-100.00,West,264,5.0,10.0,27,-99.99,,,-99.99,,2013-07-19 02:52:00,
2013-07-18 20:01:00,79.0,44.0,-100.00,West,270,4.0,7.0,29,-99.99,,,-99.99,,2013-07-19 03:01:00,
2013-07-18 20:11:00,78.0,45.0,-100.00,West,270,5.0,10.0,31,-99.99,,,-99.99,,2013-07-19 03:11:00,
2013-07-18 20:32:00,76.0,44.0,-100.00,West,262,4.0,8.0,32,-99.99,,,-99.99,,2013-07-19 03:32:00,
2013-07-18 20:42:00,76.0,44.0,-100.00,West,262,4.0,8.0,32,-99.99,,,-99.99,,2013-07-19 03:42:00,
2013-07-18 20:52:00,74.0,44.0,-100.00,West,277,3.0,5.0,34,-99.99,,,-99.99,,2013-07-19 03:52:00,
2013-07-18 21:02:00,74.0,44.0,-100.00,West,277,3.0,5.0,34,-99.99,,,-99.99,,2013-07-19 04:02:00,
2013-07-18 21:11:00,72.0,44.0,-100.00,SSW,206,2.0,4.0,36,-99.99,,,-99.99,,2013-07-19 04:11:00,
2013-07-18 21:21:00,72.0,44.0,-100.00,SSW,206,2.0,4.0,36,-99.99,,,-99.99,,2013-07-19 04:21:00,
2013-07-18 21:32:00,70.0,44.0,-100.00,East,97,2.0,3.0,39,-99.99,,,-99.99,,2013-07-19 04:32:00,
2013-07-18 21:43:00,70.0,43.0,-100.00,ESE,118,4.0,5.0,38,-99.99,,,-99.99,,2013-07-19 04:43:00,
2013-07-18 21:52:00,70.0,43.0,-100.00,ESE,118,4.0,5.0,38,-99.99,,,-99.99,,2013-07-19 04:52:00,
2013-07-18 22:11:00,69.0,44.0,-100.00,SSE,155,0.0,1.0,41,-99.99,,,-99.99,,2013-07-19 05:11:00,
2013-07-18 22:21:00,69.0,44.0,-100.00,SSE,155,0.0,1.0,41,-99.99,,,-99.99,,2013-07-19 05:21:00,
2013-07-18 23:01:00,65.0,44.0,-100.00,ESE,122,2.0,3.0,47,-99.99,,,-99.99,,2013-07-19 06:01:00,
2013-07-18 23:11:00,65.0,44.0,-100.00,ESE,122,2.0,3.0,47,-99.99,,,-99.99,,2013-07-19 06:11:00,
2013-07-18 23:32:00,65.0,45.0,-100.00,SE,130,1.0,2.0,49,-99.99,,,-99.99,,2013-07-19 06:32:00,
2013-07-18 23:52:00,62.0,45.0,-100.00,North,-999,0.0,0.0,53,-99.99,,,-99.99,,2013-07-19 06:52:00,